createdAt,value
2022-12-29T00:02:01.965Z,16.92
2022-12-29T00:04:28.837Z,16.90
2022-12-29T00:06:55.418Z,16.91
2022-12-29T00:09:22.209Z,16.80
2022-12-29T00:11:51.142Z,16.82
2022-12-29T00:14:36.650Z,16.78
2022-12-29T00:17:03.861Z,16.72
2022-12-29T00:19:49.061Z,16.68
2022-12-29T00:22:34.733Z,16.66
2022-12-29T00:25:20.768Z,16.61
2022-12-29T00:28:07.649Z,16.56
2022-12-29T00:30:55.433Z,16.55
2022-12-29T00:33:45.183Z,16.57
2022-12-29T00:36:14.917Z,16.48
2022-12-29T00:39:04.772Z,16.45
2022-12-29T00:41:50.152Z,16.44
2022-12-29T00:44:16.963Z,16.40
2022-12-29T00:46:44.833Z,16.37
2022-12-29T00:49:32.075Z,16.34
2022-12-29T00:52:09.994Z,16.32
2022-12-29T00:54:38.740Z,16.31
2022-12-29T00:57:07.821Z,16.30
2022-12-29T00:59:38.994Z,16.28
2022-12-29T01:02:06.379Z,16.26
2022-12-29T01:04:33.618Z,16.26
2022-12-29T01:07:01.006Z,16.24
2022-12-29T01:09:46.308Z,16.23
2022-12-29T01:12:13.574Z,16.20
2022-12-29T01:14:41.646Z,16.20
2022-12-29T01:17:08.557Z,16.18
2022-12-29T01:19:35.302Z,16.17
2022-12-29T01:22:01.843Z,16.15
2022-12-29T01:24:28.803Z,16.13
2022-12-29T01:26:55.818Z,16.13
2022-12-29T01:29:23.363Z,16.10
2022-12-29T01:31:51.149Z,16.09
2022-12-29T01:34:18.606Z,16.09
2022-12-29T01:36:45.317Z,16.08
2022-12-29T01:39:13.206Z,16.05
2022-12-29T01:41:42.519Z,16.05
2022-12-29T01:44:46.285Z,16.04
2022-12-29T01:47:16.044Z,16.02
2022-12-29T01:49:42.803Z,15.98
2022-12-29T01:52:10.430Z,16.00
2022-12-29T01:54:48.248Z,15.98
2022-12-29T01:57:20.704Z,16.00
2022-12-29T01:59:55.537Z,15.99
2022-12-29T02:02:22.809Z,15.95
2022-12-29T02:04:49.532Z,15.96
2022-12-29T02:07:21.052Z,15.94
2022-12-29T02:09:49.655Z,15.96
2022-12-29T02:12:19.177Z,15.96
2022-12-29T02:14:46.604Z,15.91
2022-12-29T02:17:13.436Z,15.98
2022-12-29T02:19:53.157Z,15.98
2022-12-29T02:22:35.626Z,15.93
2022-12-29T02:25:33.400Z,15.93
2022-12-29T02:28:28.348Z,15.90
2022-12-29T02:31:31.406Z,15.90
2022-12-29T02:34:28.912Z,15.94
2022-12-29T02:37:06.207Z,15.90
2022-12-29T02:39:51.248Z,15.86
2022-12-29T02:42:50.250Z,15.86
2022-12-29T02:45:27.713Z,15.86
2022-12-29T02:48:22.358Z,15.83
2022-12-29T02:50:58.208Z,15.86
2022-12-29T02:53:46.443Z,15.95
2022-12-29T02:56:13.151Z,15.88
2022-12-29T02:58:41.668Z,15.87
2022-12-29T03:02:03.894Z,15.82
2022-12-29T03:04:44.675Z,15.84
2022-12-29T03:07:35.911Z,15.86
2022-12-29T03:10:14.974Z,15.82
2022-12-29T03:13:32.433Z,15.83
2022-12-29T03:16:26.698Z,15.84
2022-12-29T03:18:59.612Z,15.81
2022-12-29T03:21:56.622Z,15.91
2022-12-29T03:24:28.540Z,15.86
2022-12-29T03:26:59.753Z,15.89
2022-12-29T03:29:34.216Z,15.84
2022-12-29T03:32:04.133Z,15.90
2022-12-29T03:34:33.111Z,15.83
2022-12-29T03:37:03.996Z,15.80
2022-12-29T03:39:30.969Z,15.81
2022-12-29T03:42:02.802Z,15.79
2022-12-29T03:44:44.905Z,15.82
2022-12-29T03:47:15.690Z,15.75
2022-12-29T03:49:44.927Z,15.79
2022-12-29T03:52:12.455Z,15.71
2022-12-29T03:54:43.409Z,15.75
2022-12-29T03:57:11.904Z,15.76
2022-12-29T03:59:57.219Z,15.76
2022-12-29T04:02:24.822Z,15.75
2022-12-29T04:04:52.819Z,15.84
2022-12-29T04:07:19.496Z,15.95
2022-12-29T04:09:46.415Z,15.80
2022-12-29T04:12:19.195Z,15.85
2022-12-29T04:14:46.112Z,15.82
2022-12-29T04:17:12.923Z,15.82
2022-12-29T04:19:41.856Z,15.84
2022-12-29T04:22:08.849Z,15.80
2022-12-29T04:24:35.791Z,15.74
2022-12-29T04:27:03.358Z,15.74
2022-12-29T04:29:41.003Z,15.79
2022-12-29T04:32:07.700Z,15.73
2022-12-29T04:34:38.955Z,15.75
2022-12-29T04:37:06.384Z,15.80
2022-12-29T04:39:35.049Z,15.80
2022-12-29T04:42:02.941Z,15.75
2022-12-29T04:44:30.309Z,15.71
2022-12-29T04:46:57.253Z,15.71
2022-12-29T04:49:49.797Z,15.78
2022-12-29T04:52:34.993Z,15.70
2022-12-29T04:55:03.842Z,15.71
2022-12-29T04:57:30.810Z,15.66
2022-12-29T04:59:59.939Z,15.64
2022-12-29T05:02:27.192Z,15.72
2022-12-29T05:04:55.693Z,15.65
2022-12-29T05:07:24.337Z,15.69
2022-12-29T05:09:51.750Z,15.74
2022-12-29T05:12:18.650Z,15.75
2022-12-29T05:14:54.208Z,15.77
2022-12-29T05:17:20.904Z,15.64
2022-12-29T05:19:47.591Z,15.66
2022-12-29T05:22:14.290Z,15.67
2022-12-29T05:24:42.101Z,15.69
2022-12-29T05:27:08.867Z,15.67
2022-12-29T05:29:47.872Z,15.57
2022-12-29T05:32:15.044Z,15.63
2022-12-29T05:34:42.879Z,15.61
2022-12-29T05:37:09.642Z,15.54
2022-12-29T05:39:38.069Z,15.59
2022-12-29T05:42:06.126Z,15.62
2022-12-29T05:44:44.730Z,15.54
2022-12-29T05:47:24.555Z,15.57
2022-12-29T05:50:11.723Z,15.59
2022-12-29T05:53:08.608Z,15.63
2022-12-29T05:55:37.211Z,15.58
2022-12-29T05:58:05.383Z,15.53
2022-12-29T06:00:32.523Z,15.62
2022-12-29T06:03:00.431Z,15.45
2022-12-29T06:05:27.660Z,15.50
2022-12-29T06:07:54.893Z,15.48
2022-12-29T06:10:22.875Z,15.41
2022-12-29T06:13:15.853Z,15.41
2022-12-29T06:15:44.778Z,15.52
2022-12-29T06:18:19.394Z,15.51
2022-12-29T06:20:47.088Z,15.47
2022-12-29T06:23:14.320Z,15.40
2022-12-29T06:25:41.451Z,15.39
2022-12-29T06:28:08.531Z,15.41
2022-12-29T06:30:36.758Z,15.35
2022-12-29T06:33:03.648Z,15.33
2022-12-29T06:35:30.524Z,15.24
2022-12-29T06:37:57.158Z,15.25
2022-12-29T06:40:24.168Z,15.30
2022-12-29T06:43:09.240Z,15.22
2022-12-29T06:45:59.768Z,15.22
2022-12-29T06:48:27.244Z,15.28
2022-12-29T06:50:54.080Z,15.21
2022-12-29T06:53:20.657Z,15.22
2022-12-29T06:55:47.639Z,15.15
2022-12-29T06:58:14.338Z,15.20
2022-12-29T07:00:42.133Z,15.14
2022-12-29T07:03:09.055Z,15.14
2022-12-29T07:05:35.846Z,15.09
2022-12-29T07:08:02.623Z,15.10
2022-12-29T07:10:29.488Z,15.05
2022-12-29T07:12:56.162Z,15.09
2022-12-29T07:15:22.742Z,15.09
2022-12-29T07:17:50.730Z,15.20
2022-12-29T07:20:23.204Z,15.20
2022-12-29T07:22:53.179Z,15.13
2022-12-29T07:25:19.987Z,15.10
2022-12-29T07:27:46.580Z,15.06
2022-12-29T07:30:13.785Z,15.08
2022-12-29T07:32:40.603Z,15.00
2022-12-29T07:35:07.899Z,15.07
2022-12-29T07:37:35.604Z,15.05
2022-12-29T07:40:04.392Z,15.04
2022-12-29T07:42:32.398Z,15.05
2022-12-29T07:44:59.941Z,15.01
2022-12-29T07:47:33.494Z,15.08
2022-12-29T07:50:00.599Z,15.17
2022-12-29T07:52:27.253Z,15.31
2022-12-29T07:54:54.003Z,15.51
2022-12-29T07:57:22.994Z,15.57
2022-12-29T07:59:53.235Z,15.68
2022-12-29T08:02:20.108Z,15.77
2022-12-29T08:04:46.794Z,15.86
2022-12-29T08:07:13.451Z,15.81
2022-12-29T08:09:40.229Z,15.78
2022-12-29T08:12:07.139Z,15.82
2022-12-29T08:14:33.996Z,15.88
2022-12-29T08:17:00.854Z,16.01
2022-12-29T08:19:27.569Z,16.07
2022-12-29T08:21:54.738Z,16.20
2022-12-29T08:24:21.430Z,16.29
2022-12-29T08:26:48.242Z,16.36
2022-12-29T08:29:14.837Z,16.42
2022-12-29T08:31:41.592Z,16.46
2022-12-29T08:34:08.385Z,16.49
2022-12-29T08:36:35.172Z,16.53
2022-12-29T08:39:01.796Z,16.55
2022-12-29T08:41:28.544Z,16.60
2022-12-29T08:43:55.298Z,16.64
2022-12-29T08:46:22.196Z,16.70
2022-12-29T08:48:49.084Z,16.72
2022-12-29T08:51:19.105Z,16.74
2022-12-29T08:53:48.201Z,16.79
2022-12-29T08:56:14.874Z,16.78
2022-12-29T08:58:48.624Z,16.81
2022-12-29T09:01:15.308Z,16.82
2022-12-29T09:06:28.933Z,16.92
2022-12-29T09:08:56.567Z,16.93
2022-12-29T09:11:25.786Z,16.96
2022-12-29T09:13:53.264Z,16.98
2022-12-29T09:16:22.419Z,16.98
2022-12-29T09:18:49.624Z,16.99
2022-12-29T09:21:16.435Z,17.00
2022-12-29T09:23:43.221Z,17.03
2022-12-29T09:26:10.208Z,17.00
2022-12-29T09:28:37.750Z,17.01
2022-12-29T09:31:04.620Z,17.03
2022-12-29T09:33:33.532Z,17.05
2022-12-29T09:36:00.650Z,17.05
2022-12-29T09:38:29.076Z,17.06
2022-12-29T09:41:01.686Z,17.07
2022-12-29T09:43:34.366Z,17.10
2022-12-29T09:46:18.583Z,17.12
2022-12-29T09:48:52.294Z,17.13
2022-12-29T09:51:24.783Z,17.09
2022-12-29T09:54:14.873Z,16.99
2022-12-29T09:56:41.892Z,17.03
2022-12-29T09:59:16.580Z,17.01
2022-12-29T10:01:57.800Z,17.13
2022-12-29T10:04:28.765Z,17.15
2022-12-29T10:07:28.707Z,17.19
2022-12-29T10:09:48.624Z,17.22
2022-12-29T10:12:27.337Z,17.21
2022-12-29T10:15:11.016Z,17.28
2022-12-29T10:17:46.368Z,17.31
2022-12-29T10:20:40.510Z,17.36
2022-12-29T10:23:42.100Z,17.41
2022-12-29T10:26:39.177Z,17.43
2022-12-29T10:29:14.396Z,17.46
2022-12-29T10:32:07.366Z,17.47
2022-12-29T10:34:45.170Z,17.54
2022-12-29T10:37:36.341Z,17.55
2022-12-29T10:40:15.038Z,17.57
2022-12-29T10:42:46.078Z,17.64
2022-12-29T10:45:16.577Z,17.60
2022-12-29T10:48:13.890Z,17.65
2022-12-29T10:50:43.877Z,17.65
2022-12-29T10:53:20.570Z,17.72
2022-12-29T10:55:47.951Z,17.77
2022-12-29T10:58:15.836Z,17.75
2022-12-29T11:00:50.129Z,17.74
2022-12-29T11:03:49.851Z,17.84
2022-12-29T11:06:27.102Z,17.85
2022-12-29T11:09:02.140Z,17.85
2022-12-29T11:11:34.831Z,17.90
2022-12-29T11:14:26.717Z,17.99
2022-12-29T11:17:04.402Z,18.01
2022-12-29T11:19:37.653Z,18.07
2022-12-29T11:22:24.183Z,18.06
2022-12-29T11:24:53.533Z,18.11
2022-12-29T11:27:24.929Z,18.11
2022-12-29T11:29:53.698Z,18.12
2022-12-29T11:32:29.404Z,18.15
2022-12-29T11:34:59.668Z,18.15
2022-12-29T11:37:40.052Z,18.17
2022-12-29T11:40:21.753Z,18.21
2022-12-29T11:43:05.750Z,18.22
2022-12-29T11:45:36.418Z,18.15
2022-12-29T11:48:17.520Z,18.14
2022-12-29T11:50:52.840Z,18.18
2022-12-29T11:53:22.637Z,18.19
2022-12-29T11:55:57.682Z,18.19
2022-12-29T11:58:33.525Z,18.29
2022-12-29T12:01:06.347Z,18.32
2022-12-29T12:03:38.244Z,18.36
2022-12-29T12:06:07.265Z,18.40
2022-12-29T12:08:42.344Z,18.42
2022-12-29T12:11:17.677Z,18.49
2022-12-29T12:14:02.881Z,18.44
2022-12-29T12:16:56.918Z,18.48
2022-12-29T12:19:39.603Z,18.54
2022-12-29T12:22:17.062Z,18.52
2022-12-29T12:24:53.195Z,18.55
2022-12-29T12:27:25.837Z,18.51
2022-12-29T12:30:22.336Z,18.59
2022-12-29T12:33:06.760Z,18.59
2022-12-29T12:35:47.722Z,18.53
2022-12-29T12:38:48.093Z,18.51
2022-12-29T12:41:22.235Z,18.48
2022-12-29T12:43:55.091Z,18.49
2022-12-29T12:46:43.590Z,18.48
2022-12-29T12:49:41.127Z,18.41
2022-12-29T12:52:22.780Z,18.47
2022-12-29T12:55:21.890Z,18.50
2022-12-29T12:57:48.621Z,18.51
2022-12-29T13:00:21.536Z,18.50
2022-12-29T13:03:09.472Z,18.49
2022-12-29T13:05:58.551Z,18.48
2022-12-29T13:09:04.092Z,18.53
2022-12-29T13:11:49.494Z,18.50
2022-12-29T13:15:07.711Z,18.51
2022-12-29T13:17:40.464Z,18.47
2022-12-29T13:20:38.068Z,18.51
2022-12-29T13:23:26.776Z,18.54
2022-12-29T13:26:21.813Z,18.54
2022-12-29T13:28:57.196Z,18.55
2022-12-29T13:31:47.683Z,18.51
2022-12-29T13:34:14.541Z,18.50
2022-12-29T13:36:44.013Z,18.53
2022-12-29T13:39:21.318Z,18.52
2022-12-29T13:41:54.451Z,18.52
2022-12-29T13:44:46.198Z,18.58
2022-12-29T13:47:26.317Z,18.58
2022-12-29T13:49:55.228Z,18.54
2022-12-29T13:52:37.484Z,18.55
2022-12-29T13:55:20.676Z,18.58
2022-12-29T13:58:05.484Z,18.55
2022-12-29T14:01:01.264Z,18.56
2022-12-29T14:03:49.152Z,18.54
2022-12-29T14:06:20.237Z,18.52
2022-12-29T14:08:48.617Z,18.49
2022-12-29T14:11:17.998Z,18.64
2022-12-29T14:13:47.936Z,18.69
2022-12-29T14:16:35.835Z,18.74
2022-12-29T14:19:27.283Z,18.81
2022-12-29T14:21:58.406Z,18.73
2022-12-29T14:24:35.655Z,18.76
2022-12-29T14:27:22.468Z,18.85
2022-12-29T14:29:52.827Z,18.89
2022-12-29T14:32:22.517Z,18.76
2022-12-29T14:34:52.477Z,18.74
2022-12-29T14:37:25.891Z,18.81
2022-12-29T14:40:07.744Z,18.83
2022-12-29T14:42:34.807Z,18.86
2022-12-29T14:45:27.594Z,18.86
2022-12-29T14:47:55.121Z,18.84
2022-12-29T14:50:21.755Z,18.92
2022-12-29T14:53:02.431Z,18.93
2022-12-29T14:55:50.988Z,18.89
2022-12-29T14:58:27.434Z,18.83
2022-12-29T15:00:55.458Z,18.82
2022-12-29T15:03:46.316Z,18.78
2022-12-29T15:06:17.898Z,18.76
2022-12-29T15:09:02.571Z,18.76
2022-12-29T15:11:41.404Z,18.72
2022-12-29T15:14:33.735Z,18.69
2022-12-29T15:17:01.387Z,18.68
2022-12-29T15:19:29.326Z,18.70
2022-12-29T15:21:57.849Z,18.69
2022-12-29T15:24:25.619Z,18.62
2022-12-29T15:26:54.645Z,18.66
2022-12-29T15:29:36.729Z,18.57
2022-12-29T15:32:21.707Z,18.52
2022-12-29T15:34:52.682Z,18.54
2022-12-29T15:37:23.737Z,18.56
2022-12-29T15:39:51.162Z,18.59
2022-12-29T15:42:39.523Z,18.64
2022-12-29T15:45:11.877Z,18.56
2022-12-29T15:47:39.886Z,18.53
2022-12-29T15:50:24.091Z,18.54
2022-12-29T15:52:51.346Z,18.62
2022-12-29T15:55:34.680Z,18.65
2022-12-29T15:58:03.920Z,18.74
2022-12-29T16:00:32.574Z,18.82
2022-12-29T16:03:05.434Z,18.80
2022-12-29T16:05:34.912Z,18.77
2022-12-29T16:08:02.704Z,18.95
2022-12-29T16:10:43.164Z,19.01
2022-12-29T16:13:36.833Z,18.97
2022-12-29T16:16:17.411Z,19.01
2022-12-29T16:18:45.158Z,19.00
2022-12-29T16:21:23.639Z,18.95
2022-12-29T16:23:54.680Z,18.94
2022-12-29T16:26:24.313Z,18.88
2022-12-29T16:29:00.509Z,18.89
2022-12-29T16:31:38.098Z,18.93
2022-12-29T16:34:24.754Z,18.86
2022-12-29T16:36:58.383Z,18.88
2022-12-29T16:39:36.962Z,18.86
2022-12-29T16:42:36.838Z,18.88
2022-12-29T16:45:20.538Z,18.80
2022-12-29T16:48:10.027Z,18.77
2022-12-29T16:50:40.234Z,18.81
2022-12-29T16:53:18.761Z,18.76
2022-12-29T16:55:54.077Z,18.81
2022-12-29T16:58:30.131Z,18.76
2022-12-29T17:00:58.404Z,18.74
2022-12-29T17:03:32.386Z,18.72
2022-12-29T17:05:59.360Z,18.65
2022-12-29T17:08:26.276Z,18.65
2022-12-29T17:11:14.244Z,18.61
2022-12-29T17:13:41.412Z,18.58
2022-12-29T17:16:11.668Z,18.59
2022-12-29T17:18:39.087Z,18.56
2022-12-29T17:21:05.845Z,18.57
2022-12-29T17:23:34.226Z,18.50
2022-12-29T17:26:01.487Z,18.54
2022-12-29T17:28:32.986Z,18.50
2022-12-29T17:31:03.448Z,18.48
2022-12-29T17:33:36.870Z,18.50
2022-12-29T17:36:04.090Z,18.48
2022-12-29T17:38:34.914Z,18.50
2022-12-29T17:41:01.850Z,18.54
2022-12-29T17:43:34.797Z,18.56
2022-12-29T17:46:06.077Z,18.57
2022-12-29T17:48:32.961Z,18.60
2022-12-29T17:50:59.954Z,18.64
2022-12-29T17:53:29.446Z,18.64
2022-12-29T17:55:56.576Z,18.68
2022-12-29T17:58:24.558Z,18.70
2022-12-29T18:01:02.447Z,18.70
2022-12-29T18:03:34.930Z,18.71
2022-12-29T18:06:02.851Z,18.70
2022-12-29T18:08:30.477Z,18.80
2022-12-29T18:10:57.230Z,18.75
2022-12-29T18:13:40.391Z,18.71
2022-12-29T18:16:12.393Z,18.66
2022-12-29T18:18:39.275Z,18.61
2022-12-29T18:21:06.564Z,18.61
2022-12-29T18:23:36.791Z,18.61
2022-12-29T18:26:07.299Z,18.58
2022-12-29T18:28:34.167Z,18.58
2022-12-29T18:31:01.918Z,18.54
2022-12-29T18:33:29.876Z,18.53
2022-12-29T18:36:04.921Z,18.54
2022-12-29T18:38:32.169Z,18.55
2022-12-29T18:40:59.390Z,18.50
2022-12-29T18:43:26.253Z,18.42
2022-12-29T18:45:53.037Z,18.39
2022-12-29T18:48:20.772Z,18.39
2022-12-29T18:50:52.030Z,18.36
2022-12-29T18:53:25.102Z,18.36
2022-12-29T18:55:53.283Z,18.34
2022-12-29T18:58:20.040Z,18.34
2022-12-29T19:00:47.605Z,18.33
2022-12-29T19:03:17.628Z,18.32
2022-12-29T19:05:46.649Z,18.28
2022-12-29T19:08:13.872Z,18.27
2022-12-29T19:10:42.082Z,18.28
2022-12-29T19:13:17.210Z,18.27
2022-12-29T19:15:46.342Z,18.33
2022-12-29T19:18:43.007Z,18.30
2022-12-29T19:21:05.040Z,18.32
2022-12-29T19:23:31.626Z,18.31
2022-12-29T19:25:58.393Z,18.32
2022-12-29T19:28:27.354Z,18.30
2022-12-29T19:30:58.352Z,18.36
2022-12-29T19:33:25.970Z,18.32
2022-12-29T19:35:53.136Z,18.34
2022-12-29T19:38:20.545Z,18.34
2022-12-29T19:40:50.642Z,18.30
2022-12-29T19:43:18.164Z,18.34
2022-12-29T19:45:45.908Z,18.33
2022-12-29T19:48:15.298Z,18.32
2022-12-29T19:50:43.619Z,18.26
2022-12-29T19:53:10.947Z,18.28
2022-12-29T19:55:37.785Z,18.30
2022-12-29T19:58:04.807Z,18.21
2022-12-29T20:00:31.595Z,18.18
2022-12-29T20:02:58.441Z,18.21
2022-12-29T20:05:25.301Z,18.16
2022-12-29T20:07:52.049Z,18.18
2022-12-29T20:10:18.815Z,18.15
2022-12-29T20:12:45.524Z,18.12
2022-12-29T20:15:12.656Z,18.14
2022-12-29T20:18:11.819Z,18.22
2022-12-29T20:20:26.546Z,18.11
2022-12-29T20:22:53.378Z,18.14
2022-12-29T20:25:47.912Z,18.14
2022-12-29T20:28:06.826Z,18.15
2022-12-29T20:30:33.525Z,18.16
2022-12-29T20:33:03.397Z,18.14
2022-12-29T20:35:34.813Z,18.16
2022-12-29T20:38:01.432Z,18.10
2022-12-29T20:40:28.095Z,18.14
2022-12-29T20:42:54.837Z,18.15
2022-12-29T20:45:21.995Z,18.08
2022-12-29T20:47:48.904Z,18.10
2022-12-29T20:50:15.749Z,18.08
2022-12-29T20:52:42.554Z,18.11
2022-12-29T20:55:09.520Z,18.15
2022-12-29T20:58:05.649Z,18.13
2022-12-29T21:00:23.074Z,18.11
2022-12-29T21:02:50.000Z,18.12
2022-12-29T21:05:25.257Z,18.09
2022-12-29T21:07:53.666Z,18.10
2022-12-29T21:10:21.603Z,18.08
2022-12-29T21:12:48.885Z,18.08
2022-12-29T21:15:17.730Z,18.10
2022-12-29T21:17:44.674Z,18.18
2022-12-29T21:20:30.055Z,18.21
2022-12-29T21:23:01.202Z,18.22
2022-12-29T21:25:37.360Z,18.33
2022-12-29T21:28:06.083Z,18.39
2022-12-29T21:30:34.057Z,18.42
2022-12-29T21:33:01.411Z,18.40
2022-12-29T21:35:28.222Z,18.51
2022-12-29T21:37:55.156Z,18.53
2022-12-29T21:40:24.782Z,18.54
2022-12-29T21:42:51.663Z,18.55
2022-12-29T21:45:29.806Z,18.58
2022-12-29T21:48:23.955Z,18.57
2022-12-29T21:51:12.727Z,18.62
2022-12-29T21:53:42.024Z,18.60
2022-12-29T21:56:16.183Z,18.66
2022-12-29T21:59:03.936Z,18.69
2022-12-29T22:01:50.954Z,18.70
2022-12-29T22:04:38.433Z,18.75
2022-12-29T22:07:25.396Z,18.82
2022-12-29T22:10:10.648Z,18.76
2022-12-29T22:12:56.553Z,18.81
2022-12-29T22:15:23.953Z,18.76
2022-12-29T22:17:52.746Z,18.76
2022-12-29T22:20:21.100Z,18.80
2022-12-29T22:22:47.862Z,18.79
2022-12-29T22:25:14.608Z,18.84
2022-12-29T22:27:41.316Z,18.86
2022-12-29T22:30:08.456Z,18.88
2022-12-29T22:32:35.209Z,18.83
2022-12-29T22:35:07.483Z,18.87
2022-12-29T22:37:35.891Z,18.90
2022-12-29T22:40:03.697Z,18.75
2022-12-29T22:42:30.493Z,18.66
2022-12-29T22:44:57.258Z,18.58
2022-12-29T22:47:24.035Z,18.56
2022-12-29T22:49:51.144Z,18.55
2022-12-29T22:52:17.877Z,18.53
2022-12-29T22:54:44.510Z,18.54
2022-12-29T22:57:11.239Z,18.49
2022-12-29T22:59:37.892Z,18.44
2022-12-29T23:02:04.540Z,18.41
2022-12-29T23:07:18.301Z,18.43
2022-12-29T23:09:45.215Z,18.44
2022-12-29T23:12:12.030Z,18.38
2022-12-29T23:14:38.836Z,18.35
2022-12-29T23:17:05.495Z,18.32
2022-12-29T23:19:32.282Z,18.29
2022-12-29T23:21:58.906Z,18.28
2022-12-29T23:24:25.595Z,18.21
2022-12-29T23:26:52.248Z,18.18
2022-12-29T23:29:20.325Z,18.12
2022-12-29T23:31:47.968Z,18.08
2022-12-29T23:34:16.541Z,18.02
2022-12-29T23:36:43.830Z,18.02
2022-12-29T23:39:18.756Z,18.00
2022-12-29T23:41:45.557Z,17.97
2022-12-29T23:44:12.377Z,17.98
2022-12-29T23:46:40.931Z,17.95
2022-12-29T23:49:10.726Z,17.94
2022-12-29T23:51:37.428Z,17.92
2022-12-29T23:54:04.392Z,17.86
2022-12-29T23:56:31.479Z,17.80
2022-12-29T23:58:58.282Z,17.77
